Pagrindinis puslapis
METAR-TAF:

METAR-TAF

Oro uostai :

Ušakas, Turkija

platuma: 38-40N, ilguma: 029-25E, Aukštis: 919 m

METAR: trūkstamas

Laikas: 02:12 (23:12 UTC)

Prognozė

Ataskaita buvo paskelbta 6 valandos ir 32 minutes, ne 16:40 UTC
Prognozė galioja nuo 05 metu 18 UTC su 06 metu 03 UTC
Vėjas 2 kt nuo kintamojo kryptimis
Matomumas 10 km arba daugiau
Išsisklaidę debesys ne aukštis 3500 ft
Su prošvaistėmis ne aukštis 10000 ft
lietus
Tapsmas
nuo 05 metu 18 UTC su 05 metu 21 UTC
Matomumas: 2000 m
rūkana

TAF: LTBO 051640Z 0518/0603 VRB02KT 9999 -SHRA SCT035 BKN100 BECMG 0518/0521 2000 BR

Orai ataskaitas ir orų prognozės (METAR, TAF).

turimą stotys yra geltonos ir raudonos taškus žemėlapyje.

Perkelti pele per norėdami pamatyti stoties vardą.

Tada spustelėkite, norėdami matyti oro stebėjimo ir prognozės.

Norėdami pakeisti žemėlapį: spustelėkite ant žalios mygtukų su juodo kryžiaus žemyn,; žalią mygtuką su brūkšneliu, jei norite nutolinti; arba žalių rodyklių gretimoms žemėlapius.


METAR-TAF: